createdAt,value
2022-08-20T00:01:16.962Z,7.18
2022-08-20T00:03:50.244Z,9.88
2022-08-20T00:06:23.633Z,14.52
2022-08-20T00:08:51.456Z,8.88
2022-08-20T00:11:22.979Z,8.68
2022-08-20T00:13:54.410Z,8.93
2022-08-20T00:16:24.203Z,11.70
2022-08-20T00:18:51.744Z,15.00
2022-08-20T00:21:21.075Z,10.82
2022-08-20T00:23:52.527Z,9.45
2022-08-20T00:26:21.163Z,10.43
2022-08-20T00:28:48.749Z,9.63
2022-08-20T00:31:19.531Z,11.35
2022-08-20T00:33:47.862Z,12.25
2022-08-20T00:36:17.782Z,11.57
2022-08-20T00:38:46.822Z,10.18
2022-08-20T00:41:20.290Z,10.45
2022-08-20T00:44:04.470Z,13.18
2022-08-20T00:46:32.968Z,8.55
2022-08-20T00:49:03.242Z,10.00
2022-08-20T00:51:53.861Z,15.43
2022-08-20T00:54:28.162Z,10.45
2022-08-20T00:57:00.027Z,13.95
2022-08-20T00:59:30.344Z,9.13
2022-08-20T01:01:58.865Z,8.57
2022-08-20T01:04:29.255Z,11.80
2022-08-20T01:06:57.503Z,11.68
2022-08-20T01:09:49.767Z,8.00
2022-08-20T01:12:14.844Z,11.13
2022-08-20T01:14:45.531Z,8.98
2022-08-20T01:17:17.984Z,9.25
2022-08-20T01:19:51.220Z,9.93
2022-08-20T01:22:54.415Z,10.02
2022-08-20T01:25:33.516Z,8.15
2022-08-20T01:28:01.839Z,11.48
2022-08-20T01:30:29.962Z,9.27
2022-08-20T01:32:57.582Z,12.73
2022-08-20T01:35:26.383Z,11.50
2022-08-20T01:37:53.856Z,13.52
2022-08-20T01:40:48.926Z,14.27
2022-08-20T01:43:17.881Z,8.90
2022-08-20T01:45:45.721Z,12.90
2022-08-20T01:48:16.359Z,11.38
2022-08-20T01:50:52.637Z,10.77
2022-08-20T01:53:28.893Z,10.75
2022-08-20T01:55:56.347Z,11.25
2022-08-20T01:58:23.928Z,12.95
2022-08-20T02:00:51.334Z,9.23
2022-08-20T02:03:18.674Z,10.32
2022-08-20T02:05:47.167Z,11.77
2022-08-20T02:08:14.565Z,10.85
2022-08-20T02:10:42.112Z,9.48
2022-08-20T02:13:10.455Z,9.75
2022-08-20T02:15:39.751Z,8.00
2022-08-20T02:18:13.173Z,8.40
2022-08-20T02:20:42.183Z,8.68
2022-08-20T02:23:10.555Z,14.35
2022-08-20T02:25:40.596Z,10.23
2022-08-20T02:28:10.852Z,12.88
2022-08-20T02:30:47.360Z,9.27
2022-08-20T02:33:18.286Z,11.85
2022-08-20T02:35:48.298Z,12.88
2022-08-20T02:38:16.798Z,13.00
2022-08-20T02:40:45.643Z,9.98
2022-08-20T02:43:13.104Z,10.98
2022-08-20T02:45:44.228Z,11.20
2022-08-20T02:48:15.854Z,12.60
2022-08-20T02:50:44.249Z,9.60
2022-08-20T02:53:12.104Z,11.07
2022-08-20T02:55:39.926Z,11.15
2022-08-20T02:58:07.529Z,10.20
2022-08-20T03:00:38.482Z,12.30
2022-08-20T03:03:11.052Z,12.45
2022-08-20T03:05:40.723Z,11.00
2022-08-20T03:08:10.975Z,10.27
2022-08-20T03:10:40.139Z,10.27
2022-08-20T03:13:11.524Z,11.15
2022-08-20T03:15:44.552Z,9.82
2022-08-20T03:18:12.553Z,9.88
2022-08-20T03:20:40.889Z,12.18
2022-08-20T03:23:08.452Z,11.18
2022-08-20T03:25:36.257Z,9.77
2022-08-20T03:28:04.552Z,9.25
2022-08-20T03:30:32.302Z,11.05
2022-08-20T03:32:59.844Z,8.93
2022-08-20T03:35:29.335Z,14.02
2022-08-20T03:37:58.057Z,9.60
2022-08-20T03:40:30.003Z,9.88
2022-08-20T03:42:58.797Z,9.32
2022-08-20T03:45:27.854Z,8.82
2022-08-20T03:47:56.300Z,9.48
2022-08-20T03:50:26.527Z,9.77
2022-08-20T03:52:58.002Z,12.23
2022-08-20T03:55:26.440Z,9.85
2022-08-20T03:58:00.105Z,9.57
2022-08-20T04:00:32.898Z,9.90
2022-08-20T04:03:01.103Z,11.60
2022-08-20T04:05:31.275Z,10.30
2022-08-20T04:08:03.174Z,11.68
2022-08-20T04:10:31.961Z,9.10
2022-08-20T04:12:59.441Z,10.70
2022-08-20T04:15:27.086Z,12.45
2022-08-20T04:17:54.963Z,8.60
2022-08-20T04:20:26.223Z,7.88
2022-08-20T04:22:58.959Z,8.60
2022-08-20T04:25:29.607Z,10.32
2022-08-20T04:27:58.706Z,13.70
2022-08-20T04:30:27.273Z,11.23
2022-08-20T04:32:56.369Z,10.93
2022-08-20T04:35:24.857Z,7.70
2022-08-20T04:38:07.519Z,9.23
2022-08-20T04:40:54.597Z,8.52
2022-08-20T04:43:26.135Z,9.43
2022-08-20T04:45:55.601Z,8.55
2022-08-20T04:48:28.070Z,7.88
2022-08-20T04:50:56.672Z,9.38
2022-08-20T04:53:28.326Z,9.82
2022-08-20T04:55:58.864Z,7.20
2022-08-20T04:58:35.886Z,8.10
2022-08-20T05:01:06.628Z,11.80
2022-08-20T05:03:36.209Z,6.43
2022-08-20T05:06:06.420Z,9.52
2022-08-20T05:08:35.876Z,7.38
2022-08-20T05:11:15.534Z,9.48
2022-08-20T05:13:53.154Z,9.18
2022-08-20T05:16:21.133Z,9.48
2022-08-20T05:18:52.255Z,12.25
2022-08-20T05:21:20.949Z,9.02
2022-08-20T05:23:49.585Z,12.25
2022-08-20T05:26:17.410Z,11.55
2022-08-20T05:28:58.162Z,11.05
2022-08-20T05:31:32.230Z,11.00
2022-08-20T05:34:11.083Z,11.93
2022-08-20T05:36:49.221Z,12.68
2022-08-20T05:39:21.333Z,8.85
2022-08-20T05:41:51.097Z,11.60
2022-08-20T05:44:19.651Z,11.18
2022-08-20T05:46:48.713Z,8.23
2022-08-20T05:49:20.230Z,10.48
2022-08-20T05:51:49.005Z,8.43
2022-08-20T05:54:16.427Z,8.93
2022-08-20T05:56:43.982Z,8.95
2022-08-20T05:59:15.299Z,9.25
2022-08-20T06:01:43.535Z,9.07
2022-08-20T06:04:32.076Z,8.48
2022-08-20T06:07:05.854Z,13.73
2022-08-20T06:09:35.284Z,7.20
2022-08-20T06:12:09.145Z,9.63
2022-08-20T06:14:36.877Z,10.38
2022-08-20T06:17:24.477Z,7.47
2022-08-20T06:19:51.907Z,10.50
2022-08-20T06:22:22.508Z,7.47
2022-08-20T06:24:52.374Z,9.52
2022-08-20T06:27:20.302Z,6.22
2022-08-20T06:29:47.894Z,6.35
2022-08-20T06:32:15.661Z,7.10
2022-08-20T06:34:49.660Z,11.70
2022-08-20T06:37:27.447Z,10.57
2022-08-20T06:40:02.996Z,10.57
2022-08-20T06:42:30.530Z,10.63
2022-08-20T06:44:59.802Z,8.63
2022-08-20T06:47:27.187Z,9.68
2022-08-20T06:49:54.554Z,9.55
2022-08-20T06:52:49.001Z,9.82
2022-08-20T06:55:11.528Z,8.63
2022-08-20T06:57:39.472Z,8.70
2022-08-20T07:00:10.343Z,6.60
2022-08-20T07:02:37.802Z,8.68
2022-08-20T07:05:05.873Z,6.40
2022-08-20T07:07:33.258Z,7.53
2022-08-20T07:10:07.263Z,6.78
2022-08-20T07:12:36.712Z,8.48
2022-08-20T07:15:10.394Z,6.28
2022-08-20T07:17:38.913Z,8.15
2022-08-20T07:20:14.423Z,13.02
2022-08-20T07:22:42.682Z,8.02
2022-08-20T07:25:14.559Z,9.75
2022-08-20T07:27:43.569Z,9.25
2022-08-20T07:30:33.407Z,5.65
2022-08-20T07:33:20.950Z,7.28
2022-08-20T07:35:49.368Z,4.93
2022-08-20T07:38:24.806Z,5.80
2022-08-20T07:41:02.088Z,5.97
2022-08-20T07:43:29.864Z,6.55
2022-08-20T07:46:01.248Z,7.43
2022-08-20T07:48:32.255Z,4.90
2022-08-20T07:51:05.024Z,4.88
2022-08-20T07:53:36.375Z,7.30
2022-08-20T07:56:11.415Z,6.10
2022-08-20T07:59:01.954Z,5.22
2022-08-20T08:01:32.316Z,7.15
2022-08-20T08:04:00.757Z,7.75
2022-08-20T08:06:31.493Z,10.18
2022-08-20T08:09:08.434Z,4.00
2022-08-20T08:11:38.792Z,7.75
2022-08-20T08:14:08.611Z,7.55
2022-08-20T08:16:37.810Z,9.13
2022-08-20T08:19:09.306Z,4.80
2022-08-20T08:21:36.745Z,7.50
2022-08-20T08:24:04.703Z,8.05
2022-08-20T08:26:32.096Z,7.03
2022-08-20T08:28:59.616Z,7.55
2022-08-20T08:31:27.298Z,8.00
2022-08-20T08:33:55.593Z,7.00
2022-08-20T08:36:23.290Z,7.03
2022-08-20T08:38:51.194Z,6.38
2022-08-20T08:41:34.734Z,10.65
2022-08-20T08:44:15.078Z,6.68
2022-08-20T08:46:45.451Z,5.88
2022-08-20T08:49:16.358Z,6.72
2022-08-20T08:51:49.062Z,6.75
2022-08-20T08:54:20.362Z,9.55
2022-08-20T08:56:50.503Z,5.93
2022-08-20T08:59:19.569Z,6.82
2022-08-20T09:01:55.233Z,10.57
2022-08-20T09:04:31.982Z,8.40
2022-08-20T09:07:02.023Z,13.25
2022-08-20T09:09:37.213Z,10.27
2022-08-20T09:12:10.457Z,6.95
2022-08-20T09:17:06.081Z,5.82
2022-08-20T09:19:33.878Z,8.35
2022-08-20T09:22:08.256Z,10.57
2022-08-20T09:24:35.635Z,9.27
2022-08-20T09:27:02.949Z,13.43
2022-08-20T09:29:30.311Z,10.40
2022-08-20T09:32:14.400Z,9.95
2022-08-20T09:34:45.272Z,13.52
2022-08-20T09:37:13.527Z,9.02
2022-08-20T09:39:41.223Z,9.50
2022-08-20T09:42:09.803Z,6.35
2022-08-20T09:44:37.518Z,7.93
2022-08-20T09:47:05.276Z,8.45
2022-08-20T09:49:32.758Z,11.27
2022-08-20T09:52:01.742Z,8.50
2022-08-20T09:54:30.442Z,7.55
2022-08-20T09:57:04.240Z,11.90
2022-08-20T09:59:33.507Z,8.80
2022-08-20T10:02:00.938Z,11.02
2022-08-20T10:04:28.292Z,10.05
2022-08-20T10:06:56.381Z,11.10
2022-08-20T10:09:23.920Z,9.00
2022-08-20T10:11:51.285Z,14.48
2022-08-20T10:14:18.627Z,10.68
2022-08-20T10:16:46.081Z,12.43
2022-08-20T10:19:13.492Z,14.38
2022-08-20T10:21:40.867Z,10.27
2022-08-20T10:24:08.207Z,9.60
2022-08-20T10:26:35.688Z,10.15
2022-08-20T10:29:03.041Z,5.32
2022-08-20T10:31:30.349Z,6.07
2022-08-20T10:33:57.981Z,8.88
2022-08-20T10:36:25.334Z,8.30
2022-08-20T10:38:52.683Z,9.02
2022-08-20T10:41:20.377Z,7.18
2022-08-20T10:43:47.758Z,6.63
2022-08-20T10:46:15.410Z,11.63
2022-08-20T10:48:43.141Z,6.18
2022-08-20T10:51:10.491Z,9.82
2022-08-20T10:53:39.291Z,6.07
2022-08-20T10:56:06.905Z,8.63
2022-08-20T10:58:37.693Z,12.40
2022-08-20T11:01:07.707Z,5.75
2022-08-20T11:03:35.448Z,10.45
2022-08-20T11:06:03.892Z,13.25
2022-08-20T11:08:34.412Z,5.57
2022-08-20T11:11:05.090Z,7.82
2022-08-20T11:13:33.961Z,5.57
2022-08-20T11:16:03.075Z,8.45
2022-08-20T11:18:31.327Z,5.05
2022-08-20T17:56:43.856Z,17.45
2022-08-20T17:59:33.679Z,16.23
2022-08-20T18:02:13.741Z,20.42
2022-08-20T18:04:41.708Z,19.02
2022-08-20T18:07:17.335Z,17.27
2022-08-20T18:10:17.746Z,18.95
2022-08-20T18:13:06.226Z,16.98
2022-08-20T18:15:55.429Z,18.50
2022-08-20T18:18:56.373Z,17.63
2022-08-20T18:21:36.826Z,15.65
2022-08-20T18:24:15.723Z,16.20
2022-08-20T18:27:08.961Z,16.95
2022-08-20T18:29:41.468Z,24.40
2022-08-20T18:32:26.527Z,16.85
2022-08-20T18:34:54.021Z,16.17
2022-08-20T18:37:29.429Z,18.67
2022-08-20T18:40:30.427Z,24.88
2022-08-20T18:43:16.119Z,15.65
2022-08-20T18:45:43.626Z,18.77
2022-08-20T18:48:22.957Z,15.10
2022-08-20T18:50:55.313Z,15.23
2022-08-20T18:53:34.327Z,17.23
2022-08-20T18:56:06.583Z,16.90
2022-08-20T18:59:01.868Z,18.60
2022-08-20T19:01:34.467Z,16.60
2022-08-20T19:04:03.339Z,14.70
2022-08-20T19:06:46.692Z,16.95
2022-08-20T19:09:18.996Z,18.92
2022-08-20T19:12:25.272Z,20.48
2022-08-20T19:15:16.571Z,13.80
2022-08-20T19:18:02.485Z,19.73
2022-08-20T19:20:33.055Z,17.65
2022-08-20T19:23:14.643Z,17.27
2022-08-20T19:26:02.582Z,17.52
2022-08-20T19:28:40.495Z,17.30
2022-08-20T19:31:10.847Z,18.38
2022-08-20T19:33:44.225Z,17.02
2022-08-20T19:36:20.199Z,16.13
2022-08-20T19:38:52.409Z,12.77
2022-08-20T19:41:41.635Z,13.80
2022-08-20T19:44:10.817Z,13.98
2022-08-20T19:46:43.651Z,15.55
2022-08-20T19:49:20.957Z,17.30
2022-08-20T19:52:09.793Z,15.90
2022-08-20T19:54:48.015Z,14.52
2022-08-20T19:57:17.399Z,22.58
2022-08-20T20:00:00.466Z,15.73
2022-08-20T20:02:31.845Z,21.55
2022-08-20T20:04:59.176Z,22.38
2022-08-20T20:07:30.055Z,18.48
2022-08-20T20:09:59.540Z,17.55
2022-08-20T20:12:27.039Z,18.58
2022-08-20T20:14:55.980Z,16.75
2022-08-20T20:17:29.700Z,21.30
2022-08-20T20:20:00.405Z,21.00
2022-08-20T20:22:34.203Z,21.52
2022-08-20T20:25:13.815Z,18.85
2022-08-20T20:27:48.035Z,20.40
2022-08-20T20:30:22.743Z,14.82
2022-08-20T20:32:50.921Z,18.17
2022-08-20T20:35:33.637Z,17.17
2022-08-20T20:38:16.394Z,19.63
2022-08-20T20:40:48.237Z,22.02
2022-08-20T20:43:32.160Z,17.85
2022-08-20T20:48:33.742Z,19.52
2022-08-20T20:51:12.220Z,19.60
2022-08-20T20:53:49.571Z,18.17
2022-08-20T20:56:38.143Z,19.48
2022-08-20T20:59:07.546Z,17.35
2022-08-20T21:01:48.658Z,20.02
2022-08-20T21:04:22.668Z,16.40
2022-08-20T21:06:55.595Z,19.63
2022-08-20T21:09:24.595Z,23.23
2022-08-20T21:11:52.360Z,19.38
2022-08-20T21:14:19.815Z,16.60
2022-08-20T21:16:47.626Z,19.15
2022-08-20T21:19:15.818Z,20.30
2022-08-20T21:21:44.181Z,21.02
2022-08-20T21:24:11.915Z,19.85
2022-08-20T21:26:39.980Z,18.98
2022-08-20T21:29:10.005Z,16.83
2022-08-20T21:31:46.393Z,18.95
2022-08-20T21:34:15.975Z,21.50
2022-08-20T21:36:43.588Z,20.75
2022-08-20T21:39:11.358Z,17.83
2022-08-20T21:41:39.621Z,17.13
2022-08-20T21:44:17.922Z,21.02
2022-08-20T21:46:49.806Z,17.40
2022-08-20T21:49:17.339Z,18.45
2022-08-20T21:51:44.784Z,19.52
2022-08-20T21:54:12.687Z,17.08
2022-08-20T21:56:40.671Z,19.80
2022-08-20T21:59:09.544Z,18.85
2022-08-20T22:01:38.431Z,18.83
2022-08-20T22:04:06.929Z,15.82
2022-08-20T22:06:34.332Z,21.45
2022-08-20T22:09:01.715Z,19.65
2022-08-20T22:11:29.440Z,18.98
2022-08-20T22:13:57.107Z,16.33
2022-08-20T22:16:25.254Z,17.08
2022-08-20T22:18:53.080Z,19.10
2022-08-20T22:21:25.971Z,20.33
2022-08-20T22:23:57.437Z,22.60
2022-08-20T22:26:27.387Z,22.45
2022-08-20T22:28:55.190Z,20.27
2022-08-20T22:31:26.902Z,19.63
2022-08-20T22:33:54.875Z,18.33
2022-08-20T22:36:22.722Z,20.58
2022-08-20T22:38:54.869Z,23.23
2022-08-20T22:41:23.471Z,19.60
2022-08-20T22:43:56.934Z,17.38
2022-08-20T22:46:27.224Z,20.00
2022-08-20T22:48:56.079Z,22.45
2022-08-20T22:51:35.101Z,23.90
2022-08-20T22:54:06.741Z,23.70
2022-08-20T22:56:34.130Z,21.13
2022-08-20T22:59:03.211Z,23.10
2022-08-20T23:01:31.600Z,19.55
2022-08-20T23:04:04.506Z,25.58
2022-08-20T23:06:32.173Z,21.38
2022-08-20T23:08:59.629Z,22.45
2022-08-20T23:11:27.036Z,17.83
2022-08-20T23:13:54.622Z,18.90
2022-08-20T23:16:21.946Z,23.95
2022-08-20T23:18:49.374Z,25.27
2022-08-20T23:21:17.969Z,26.17
2022-08-20T23:23:45.311Z,19.38
2022-08-20T23:26:17.757Z,23.80
2022-08-20T23:28:45.197Z,21.02
2022-08-20T23:31:12.779Z,21.48
2022-08-20T23:33:44.567Z,23.92
2022-08-20T23:36:14.994Z,20.55
2022-08-20T23:38:42.497Z,20.27
2022-08-20T23:41:09.947Z,24.55
2022-08-20T23:43:39.084Z,27.73
2022-08-20T23:46:08.161Z,20.98
2022-08-20T23:48:36.578Z,18.88
2022-08-20T23:51:04.771Z,19.95
2022-08-20T23:53:32.214Z,20.80
2022-08-20T23:55:59.638Z,20.85
2022-08-20T23:58:27.086Z,22.98
